Centenario do Sul, Brazil
Current Conditions -  °F | °C
As of 10:00 AM on Monday 20 Oct 2014 (Local Time) from SBLO Reporting Station
Broken Clouds Broken Clouds  
Wind Chill: 70°   Ceiling: 10000
Heat Index: 70°   Visibility: 6mi
Dew Point: 64°   Wind: 6mph
Humidity: 83%   Direction: 240°WSW
Pressure: 30.06"   Gusts: NA
Location:  22.82°S, 51.6°W
Report Text: SBLO 201300Z 24005KT 9999 FEW040 BKN100 21/18 Q1018
Loading
Personal Weather Stations






























Interactive Weather Map
Tropical Storm Tracking
New forecast layout! Learn more

10-Day Weather Forecast

Advertisements
Track Severe Weather on mobile